Hlavní strana
METAR-TAF:

METAR-TAF

Letiště :

Casablanca, Maroko

zeměpisná šířka: 33-34N, zeměpisná délka: 007-40W, výška: 62 m

Aktuální stav počasí

Zpráva byla vytvořena před 33 minutami, v 15:00 UTC
Severoseverovýchodní vítr 6 kt
Teplota 17°C
Vlhkost vzduchu 72%
Tlak 1012 hPa
Viditelnost 10 km a více
Polojasno ve výšce 1600 ft
Oblačno až skoro zataženo ve výšce 2600 ft

METAR: GMMC 281500Z 02006KT 9999 SCT016 BKN026 17/12 Q1012

Čas: 16:33 (15:33 UTC)


TAF: chybějící

Stav a předpovědi počasí z více než 4 000 letišť (zprávy METAR a TAF).

Červené a žluté tečky na mapě představují dostupné meteorologické stanice.

Když kurzor umístíte na tečku, zobrazí se název stanice.

Pak kliknutím zobrazíte stav a předpověď počasí.

Chcete-li změnit mapu, kliknutím na zelené tlačítko se znaménkem +mapu přiblížíte, kliknutím na zelené tlačítko se znaménkem – mapu oddálíte a kliknutím na zelené šipky přejdete na sousední mapy.


METAR-TAF: